createdAt,value
2023-05-23T00:01:03.594Z,14.08
2023-05-23T00:03:49.418Z,13.81
2023-05-23T00:06:35.241Z,13.72
2023-05-23T00:09:21.566Z,13.56
2023-05-23T00:12:07.475Z,12.90
2023-05-23T00:14:52.930Z,13.29
2023-05-23T00:17:38.899Z,13.87
2023-05-23T00:20:24.258Z,13.23
2023-05-23T00:23:10.941Z,12.77
2023-05-23T00:25:56.310Z,13.38
2023-05-23T00:28:42.264Z,12.04
2023-05-23T00:31:28.165Z,12.44
2023-05-23T00:34:16.920Z,12.68
2023-05-23T00:37:02.683Z,13.15
2023-05-23T00:39:49.199Z,13.05
2023-05-23T00:42:34.816Z,12.65
2023-05-23T00:45:20.939Z,13.03
2023-05-23T00:48:07.763Z,13.50
2023-05-23T00:50:54.320Z,12.38
2023-05-23T00:53:40.004Z,12.88
2023-05-23T00:56:25.790Z,12.95
2023-05-23T00:59:12.213Z,13.37
2023-05-23T01:02:00.899Z,13.43
2023-05-23T01:04:46.705Z,13.18
2023-05-23T01:07:32.082Z,12.15
2023-05-23T01:10:21.376Z,13.33
2023-05-23T01:13:07.042Z,13.50
2023-05-23T01:16:11.138Z,13.42
2023-05-23T01:19:03.667Z,13.69
2023-05-23T01:21:54.054Z,13.18
2023-05-23T01:24:54.403Z,13.20
2023-05-23T01:27:54.945Z,13.71
2023-05-23T01:30:42.076Z,13.28
2023-05-23T01:33:28.753Z,11.67
2023-05-23T01:36:14.602Z,11.68
2023-05-23T01:38:59.732Z,13.35
2023-05-23T01:41:46.704Z,12.57
2023-05-23T01:44:34.663Z,13.39
2023-05-23T01:47:22.050Z,11.91
2023-05-23T01:50:09.034Z,12.18
2023-05-23T01:52:55.506Z,12.14
2023-05-23T01:55:42.419Z,13.34
2023-05-23T01:58:27.692Z,12.81
2023-05-23T02:01:13.986Z,12.95
2023-05-23T02:03:59.530Z,13.47
2023-05-23T02:06:45.061Z,12.80
2023-05-23T02:09:31.787Z,13.14
2023-05-23T02:12:17.471Z,13.26
2023-05-23T02:15:03.449Z,12.48
2023-05-23T02:17:49.341Z,13.20
2023-05-23T02:20:34.828Z,11.90
2023-05-23T02:23:20.384Z,13.47
2023-05-23T02:26:05.745Z,12.76
2023-05-23T02:28:51.304Z,13.05
2023-05-23T02:31:36.885Z,13.08
2023-05-23T02:34:22.459Z,11.87
2023-05-23T02:37:08.104Z,12.14
2023-05-23T02:39:56.283Z,12.74
2023-05-23T02:42:41.464Z,12.05
2023-05-23T02:45:26.979Z,12.31
2023-05-23T02:48:12.280Z,12.74
2023-05-23T02:50:57.924Z,12.68
2023-05-23T02:53:43.475Z,12.55
2023-05-23T02:56:29.211Z,12.28
2023-05-23T02:59:14.735Z,10.92
2023-05-23T03:02:00.640Z,12.40
2023-05-23T03:04:45.898Z,12.00
2023-05-23T03:07:31.283Z,11.60
2023-05-23T03:10:17.046Z,12.52
2023-05-23T03:13:03.140Z,12.37
2023-05-23T03:15:48.530Z,12.66
2023-05-23T03:18:33.647Z,12.48
2023-05-23T03:21:20.760Z,12.25
2023-05-23T03:24:06.670Z,12.73
2023-05-23T03:26:52.248Z,12.33
2023-05-23T03:29:37.995Z,12.61
2023-05-23T03:32:23.676Z,12.95
2023-05-23T03:35:09.754Z,13.21
2023-05-23T03:37:55.720Z,13.11
2023-05-23T03:40:40.990Z,12.92
2023-05-23T03:43:26.391Z,12.24
2023-05-23T03:46:12.087Z,11.43
2023-05-23T03:48:57.702Z,12.23
2023-05-23T03:51:43.384Z,11.73
2023-05-23T03:54:30.220Z,12.31
2023-05-23T03:57:15.784Z,11.93
2023-05-23T04:00:03.749Z,12.09
2023-05-23T04:02:49.566Z,12.51
2023-05-23T04:05:36.955Z,12.51
2023-05-23T04:08:22.240Z,11.95
2023-05-23T04:11:09.462Z,12.00
2023-05-23T04:13:56.564Z,10.83
2023-05-23T04:16:42.193Z,10.41
2023-05-23T04:19:27.879Z,7.93
2023-05-23T04:22:13.520Z,10.67
2023-05-23T04:24:58.788Z,11.94
2023-05-23T04:27:47.510Z,12.22
2023-05-23T04:30:33.233Z,11.47
2023-05-23T04:33:18.722Z,11.67
2023-05-23T04:36:05.207Z,12.56
2023-05-23T04:38:51.594Z,12.89
2023-05-23T04:41:38.909Z,10.61
2023-05-23T04:44:57.584Z,11.51
2023-05-23T04:48:01.716Z,12.38
2023-05-23T04:50:57.405Z,11.40
2023-05-23T04:53:42.932Z,11.96
2023-05-23T04:56:29.857Z,12.14
2023-05-23T04:59:15.774Z,12.06
2023-05-23T05:02:01.462Z,10.99
2023-05-23T05:04:47.508Z,11.24
2023-05-23T05:07:33.498Z,12.34
2023-05-23T05:10:20.542Z,12.78
2023-05-23T05:13:06.105Z,12.32
2023-05-23T05:16:01.108Z,11.14
2023-05-23T05:18:48.712Z,12.44
2023-05-23T05:21:34.168Z,12.63
2023-05-23T05:24:19.601Z,12.59
2023-05-23T05:27:05.957Z,11.82
2023-05-23T05:29:51.369Z,12.24
2023-05-23T05:32:36.581Z,11.62
2023-05-23T05:35:22.305Z,12.69
2023-05-23T05:38:07.845Z,12.67
2023-05-23T05:40:54.130Z,12.78
2023-05-23T05:43:43.270Z,12.20
2023-05-23T05:46:28.918Z,12.18
2023-05-23T05:49:15.067Z,12.04
2023-05-23T05:52:00.819Z,12.08
2023-05-23T05:54:46.081Z,12.04
2023-05-23T05:57:31.828Z,12.42
2023-05-23T06:00:18.697Z,12.08
2023-05-23T06:03:04.047Z,11.17
2023-05-23T06:05:56.438Z,11.86
2023-05-23T06:08:42.363Z,11.59
2023-05-23T06:11:30.785Z,11.54
2023-05-23T06:14:16.341Z,11.66
2023-05-23T06:17:05.080Z,12.02
2023-05-23T06:19:50.436Z,11.63
2023-05-23T06:22:36.063Z,11.48
2023-05-23T06:25:22.765Z,11.12
2023-05-23T06:28:08.980Z,11.10
2023-05-23T06:30:54.338Z,11.47
2023-05-23T06:33:39.818Z,10.11
2023-05-23T06:36:25.306Z,11.66
2023-05-23T06:39:10.698Z,10.24
2023-05-23T06:41:56.373Z,11.20
2023-05-23T06:44:41.669Z,11.87
2023-05-23T06:47:29.584Z,11.28
2023-05-23T06:50:14.905Z,10.73
2023-05-23T06:53:00.610Z,10.76
2023-05-23T06:55:46.077Z,11.62
2023-05-23T06:58:33.554Z,12.30
2023-05-23T07:01:20.417Z,11.60
2023-05-23T07:04:07.358Z,11.11
2023-05-23T07:06:53.730Z,12.95
2023-05-23T07:09:39.963Z,11.45
2023-05-23T07:12:30.566Z,12.78
2023-05-23T07:15:17.510Z,12.91
2023-05-23T07:18:13.407Z,12.44
2023-05-23T07:20:59.367Z,12.68
2023-05-23T07:23:45.203Z,12.29
2023-05-23T07:26:31.155Z,10.81
2023-05-23T07:29:16.561Z,10.37
2023-05-23T07:32:04.446Z,11.72
2023-05-23T07:34:50.002Z,11.84
2023-05-23T07:37:35.888Z,11.20
2023-05-23T07:40:22.274Z,12.67
2023-05-23T07:43:07.611Z,11.55
2023-05-23T07:45:53.169Z,12.23
2023-05-23T07:48:38.977Z,12.43
2023-05-23T07:51:24.479Z,11.02
2023-05-23T07:54:11.258Z,12.52
2023-05-23T07:56:59.366Z,12.45
2023-05-23T07:59:45.306Z,12.60
2023-05-23T08:02:31.059Z,11.97
2023-05-23T08:05:16.650Z,12.10
2023-05-23T08:08:02.154Z,11.51
2023-05-23T08:10:47.727Z,12.22
2023-05-23T08:13:40.573Z,11.78
2023-05-23T08:16:44.858Z,12.22
2023-05-23T08:19:36.177Z,12.18
2023-05-23T08:22:21.529Z,12.36
2023-05-23T08:25:07.675Z,12.21
2023-05-23T08:27:55.348Z,12.28
2023-05-23T08:31:09.886Z,12.41
2023-05-23T08:33:56.178Z,12.38
2023-05-23T08:36:41.501Z,11.78
2023-05-23T08:39:29.365Z,11.94
2023-05-23T08:42:34.535Z,12.65
2023-05-23T08:45:19.928Z,12.08
2023-05-23T08:48:08.979Z,12.64
2023-05-23T08:50:59.993Z,12.71
2023-05-23T08:53:48.129Z,12.59
2023-05-23T08:56:34.136Z,12.09
2023-05-23T08:59:20.427Z,12.32
2023-05-23T09:02:10.915Z,13.22
2023-05-23T09:04:56.607Z,11.28
2023-05-23T09:07:47.323Z,12.21
2023-05-23T09:10:32.959Z,12.26
2023-05-23T09:13:18.818Z,12.94
2023-05-23T09:16:07.088Z,12.22
2023-05-23T09:18:59.122Z,12.36
2023-05-23T09:21:47.299Z,11.85
2023-05-23T09:24:40.041Z,10.54
2023-05-23T09:27:27.201Z,11.75
2023-05-23T09:30:13.706Z,11.90
2023-05-23T09:33:02.920Z,12.38
2023-05-23T09:35:51.020Z,11.83
2023-05-23T09:38:40.788Z,12.53
2023-05-23T09:41:30.462Z,12.22
2023-05-23T09:44:23.191Z,11.83
2023-05-23T09:47:08.882Z,10.85
2023-05-23T09:49:54.532Z,11.33
2023-05-23T09:52:40.111Z,11.50
2023-05-23T09:55:25.847Z,10.94
2023-05-23T09:58:12.747Z,12.17
2023-05-23T10:01:00.302Z,11.93
2023-05-23T10:03:51.214Z,12.00
2023-05-23T10:06:48.868Z,12.80
2023-05-23T10:09:37.824Z,12.85
2023-05-23T10:12:32.078Z,12.97
2023-05-23T10:15:19.272Z,12.71
2023-05-23T10:18:18.249Z,12.52
2023-05-23T10:21:09.582Z,12.05
2023-05-23T10:23:55.260Z,12.61
2023-05-23T10:26:41.041Z,11.92
2023-05-23T10:29:27.138Z,11.31
2023-05-23T10:32:13.535Z,11.93
2023-05-23T10:35:28.555Z,12.43
2023-05-23T10:38:52.715Z,12.46
2023-05-23T10:41:51.444Z,12.18
2023-05-23T10:44:37.256Z,12.66
2023-05-23T10:47:28.524Z,12.78
2023-05-23T10:50:16.714Z,12.06
2023-05-23T10:53:04.391Z,12.48
2023-05-23T10:55:49.616Z,11.48
2023-05-23T10:58:37.079Z,11.55
2023-05-23T11:01:23.456Z,11.92
2023-05-23T11:04:12.456Z,11.86
2023-05-23T11:06:58.382Z,11.38
2023-05-23T11:10:08.397Z,12.12
2023-05-23T11:13:06.313Z,10.77
2023-05-23T11:15:51.955Z,11.81
2023-05-23T11:18:37.275Z,10.55
2023-05-23T11:21:22.940Z,11.52
2023-05-23T11:24:10.204Z,12.01
2023-05-23T11:26:58.867Z,11.55
2023-05-23T11:29:44.493Z,10.09
2023-05-23T11:32:31.664Z,10.70
2023-05-23T11:35:18.130Z,11.32
2023-05-23T11:38:07.121Z,11.66
2023-05-23T11:40:52.637Z,11.03
2023-05-23T11:43:38.118Z,10.18
2023-05-23T11:46:23.374Z,10.09
2023-05-23T11:49:12.169Z,8.52
2023-05-23T11:52:02.535Z,10.58
2023-05-23T11:54:48.228Z,9.56
2023-05-23T11:57:33.806Z,10.58
2023-05-23T12:00:19.739Z,10.83
2023-05-23T12:03:07.113Z,10.44
2023-05-23T12:05:52.636Z,10.12
2023-05-23T12:08:38.300Z,9.82
2023-05-23T12:11:25.288Z,10.37
2023-05-23T12:14:17.052Z,11.10
2023-05-23T12:17:05.928Z,11.14
2023-05-23T12:19:56.693Z,11.08
2023-05-23T12:22:42.479Z,10.08
2023-05-23T12:25:28.195Z,9.02
2023-05-23T12:28:13.699Z,10.03
2023-05-23T12:30:59.101Z,9.58
2023-05-23T12:33:46.036Z,10.78
2023-05-23T12:36:31.990Z,10.37
2023-05-23T12:39:24.836Z,9.32
2023-05-23T12:42:10.654Z,11.05
2023-05-23T12:44:55.882Z,10.70
2023-05-23T12:47:41.421Z,10.28
2023-05-23T12:50:26.770Z,10.75
2023-05-23T12:53:16.540Z,10.79
2023-05-23T12:56:01.788Z,11.22
2023-05-23T12:58:47.278Z,11.15
2023-05-23T13:01:34.774Z,11.08
2023-05-23T13:04:20.614Z,10.03
2023-05-23T13:07:05.835Z,11.24
2023-05-23T13:09:51.112Z,10.32
2023-05-23T13:12:36.722Z,11.09
2023-05-23T13:15:22.226Z,9.32
2023-05-23T13:18:08.881Z,10.90
2023-05-23T13:20:54.244Z,10.75
2023-05-23T13:23:39.541Z,10.33
2023-05-23T13:26:25.248Z,9.98
2023-05-23T13:29:10.665Z,9.17
2023-05-23T13:31:56.411Z,9.76
2023-05-23T13:34:42.236Z,11.28
2023-05-23T13:37:27.835Z,10.76
2023-05-23T13:40:17.659Z,9.83
2023-05-23T13:43:03.059Z,9.50
2023-05-23T13:45:48.196Z,9.65
2023-05-23T13:48:33.951Z,10.55
2023-05-23T13:51:22.915Z,10.64
2023-05-23T13:54:10.318Z,10.48
2023-05-23T13:57:00.498Z,10.08
2023-05-23T13:59:47.720Z,9.78
2023-05-23T14:02:33.577Z,9.61
2023-05-23T14:05:20.609Z,10.11
2023-05-23T14:08:07.025Z,10.41
2023-05-23T14:10:52.642Z,10.12
2023-05-23T14:13:40.868Z,9.42
2023-05-23T14:16:28.319Z,10.32
2023-05-23T14:19:13.829Z,8.73
2023-05-23T14:22:00.699Z,10.10
2023-05-23T14:24:46.696Z,9.14
2023-05-23T14:27:36.252Z,10.18
2023-05-23T14:30:21.623Z,9.81
2023-05-23T14:33:08.561Z,9.66
2023-05-23T14:35:56.045Z,9.06
2023-05-23T14:38:41.667Z,8.99
2023-05-23T14:41:27.245Z,9.66
2023-05-23T14:44:13.319Z,9.76
2023-05-23T14:46:58.706Z,9.75
2023-05-23T14:49:43.960Z,9.48
2023-05-23T14:52:29.115Z,9.82
2023-05-23T14:55:14.657Z,9.51
2023-05-23T14:58:00.037Z,9.53
2023-05-23T15:00:45.679Z,9.55
2023-05-23T15:03:31.333Z,6.08
2023-05-23T15:06:16.751Z,9.94
2023-05-23T15:09:02.485Z,9.64
2023-05-23T15:11:47.859Z,9.15
2023-05-23T15:14:33.489Z,9.33
2023-05-23T15:17:19.101Z,9.86
2023-05-23T15:20:07.053Z,9.47
2023-05-23T15:22:52.840Z,8.93
2023-05-23T15:25:49.556Z,8.51
2023-05-23T15:28:35.318Z,8.08
2023-05-23T15:31:20.592Z,8.56
2023-05-23T15:34:06.062Z,8.99
2023-05-23T15:36:51.564Z,8.97
2023-05-23T15:39:37.141Z,8.61
2023-05-23T15:42:22.399Z,8.36
2023-05-23T15:45:08.479Z,9.91
2023-05-23T15:47:53.852Z,9.10
2023-05-23T15:50:45.157Z,10.00
2023-05-23T15:53:40.092Z,9.42
2023-05-23T15:56:29.281Z,10.08
2023-05-23T15:59:15.050Z,10.10
2023-05-23T16:02:00.697Z,9.05
2023-05-23T16:04:45.859Z,6.50
2023-05-23T16:07:31.534Z,10.27
2023-05-23T16:10:17.285Z,10.14
2023-05-23T16:13:02.732Z,10.26
2023-05-23T16:15:48.370Z,9.73
2023-05-23T16:18:34.141Z,9.28
2023-05-23T16:21:19.496Z,10.40
2023-05-23T16:24:05.776Z,9.90
2023-05-23T16:26:51.589Z,10.08
2023-05-23T16:29:36.966Z,8.59
2023-05-23T16:32:22.522Z,8.83
2023-05-23T16:35:08.430Z,9.20
2023-05-23T16:37:53.664Z,9.23
2023-05-23T16:40:40.475Z,9.76
2023-05-23T16:43:33.550Z,9.11
2023-05-23T16:46:22.417Z,10.10
2023-05-23T16:49:10.292Z,9.51
2023-05-23T16:52:00.280Z,9.37
2023-05-23T16:54:52.703Z,9.58
2023-05-23T16:57:41.707Z,9.83
2023-05-23T17:00:28.706Z,8.12
2023-05-23T17:03:16.693Z,9.65
2023-05-23T17:06:06.758Z,10.02
2023-05-23T17:08:53.750Z,9.81
2023-05-23T17:11:48.380Z,10.56
2023-05-23T17:14:34.606Z,10.73
2023-05-23T17:17:22.460Z,9.62
2023-05-23T17:20:10.190Z,10.61
2023-05-23T17:22:58.667Z,11.23
2023-05-23T17:25:47.248Z,10.96
2023-05-23T17:28:36.457Z,10.97
2023-05-23T17:31:22.188Z,9.68
2023-05-23T17:34:10.940Z,10.26
2023-05-23T17:36:57.942Z,11.08
2023-05-23T17:39:54.606Z,10.84
2023-05-23T17:42:45.756Z,10.56
2023-05-23T17:45:32.341Z,10.95
2023-05-23T17:48:31.173Z,10.78
2023-05-23T17:51:26.740Z,11.01
2023-05-23T17:54:12.479Z,10.51
2023-05-23T17:57:01.283Z,11.17
2023-05-23T17:59:47.716Z,11.02
2023-05-23T18:02:45.397Z,10.68
2023-05-23T18:05:39.660Z,11.08
2023-05-23T18:08:28.976Z,10.45
2023-05-23T18:11:30.647Z,11.34
2023-05-23T18:14:16.280Z,10.75
2023-05-23T18:17:03.669Z,11.86
2023-05-23T18:20:02.078Z,11.64
2023-05-23T18:22:57.087Z,11.03
2023-05-23T18:25:44.892Z,10.91
2023-05-23T18:28:30.415Z,9.82
2023-05-23T18:31:15.993Z,11.62
2023-05-23T18:34:01.615Z,11.67
2023-05-23T18:36:46.990Z,11.84
2023-05-23T18:39:35.008Z,11.22
2023-05-23T18:42:21.709Z,10.73
2023-05-23T18:45:09.384Z,11.39
2023-05-23T18:47:54.736Z,11.73
2023-05-23T18:50:40.454Z,11.69
2023-05-23T18:53:25.995Z,11.24
2023-05-23T18:56:11.461Z,11.39
2023-05-23T18:58:56.714Z,11.80
2023-05-23T19:01:42.755Z,11.98
2023-05-23T19:04:28.279Z,10.73
2023-05-23T19:07:14.187Z,11.45
2023-05-23T19:09:59.867Z,11.43
2023-05-23T19:12:45.479Z,11.69
2023-05-23T19:15:30.717Z,11.85
2023-05-23T19:18:20.272Z,11.75
2023-05-23T19:21:05.978Z,11.18
2023-05-23T19:23:51.705Z,10.57
2023-05-23T19:26:37.212Z,11.69
2023-05-23T19:29:22.882Z,10.62
2023-05-23T19:32:08.541Z,11.57
2023-05-23T19:34:54.198Z,10.98
2023-05-23T19:37:39.367Z,10.77
2023-05-23T19:40:24.798Z,9.85
2023-05-23T19:43:10.372Z,10.08
2023-05-23T19:45:56.199Z,9.62
2023-05-23T19:48:41.939Z,9.63
2023-05-23T19:51:27.297Z,8.82
2023-05-23T19:54:12.945Z,9.67
2023-05-23T19:56:58.378Z,9.50
2023-05-23T19:59:44.123Z,8.65
2023-05-23T20:02:29.787Z,9.13
2023-05-23T20:05:15.231Z,8.85
2023-05-23T20:08:00.816Z,9.03
2023-05-23T20:10:46.471Z,8.92
2023-05-23T20:13:32.219Z,8.13
2023-05-23T20:16:18.026Z,9.07
2023-05-23T20:19:03.466Z,8.68
2023-05-23T20:21:49.040Z,9.24
2023-05-23T20:24:34.574Z,8.72
2023-05-23T20:27:20.393Z,9.43
2023-05-23T20:30:06.883Z,9.33
2023-05-23T20:32:52.393Z,9.43
2023-05-23T20:35:38.120Z,8.51
2023-05-23T20:38:23.534Z,9.12
2023-05-23T20:41:11.600Z,8.16
2023-05-23T20:43:57.261Z,8.05
2023-05-23T20:46:42.891Z,9.02
2023-05-23T20:49:28.363Z,8.61
2023-05-23T20:52:14.911Z,9.00
2023-05-23T20:55:00.538Z,8.84
2023-05-23T20:57:47.007Z,8.86
2023-05-23T21:00:32.456Z,8.28
2023-05-23T21:03:18.582Z,8.75
2023-05-23T21:06:04.314Z,8.16
2023-05-23T21:08:49.869Z,7.34
2023-05-23T21:11:35.005Z,7.18
2023-05-23T21:14:20.759Z,8.15
2023-05-23T21:17:06.288Z,8.21
2023-05-23T21:19:51.862Z,8.17
2023-05-23T21:22:37.772Z,8.02
2023-05-23T21:25:23.193Z,8.18
2023-05-23T21:28:08.711Z,8.14
2023-05-23T21:30:54.542Z,8.15
2023-05-23T21:33:40.024Z,8.08
2023-05-23T21:36:25.706Z,7.12
2023-05-23T21:39:11.194Z,8.25
2023-05-23T21:41:56.410Z,8.02
2023-05-23T21:44:41.655Z,7.62
2023-05-23T21:47:27.195Z,6.85
2023-05-23T21:50:12.296Z,7.78
2023-05-23T21:52:57.475Z,7.71
2023-05-23T21:55:42.921Z,7.58
2023-05-23T21:58:28.340Z,7.34
2023-05-23T22:01:14.151Z,6.90
2023-05-23T22:03:59.707Z,7.80
2023-05-23T22:06:45.031Z,7.27
2023-05-23T22:09:30.780Z,6.11
2023-05-23T22:12:16.053Z,7.14
2023-05-23T22:15:01.488Z,7.42
2023-05-23T22:17:46.819Z,7.18
2023-05-23T22:20:32.553Z,6.39
2023-05-23T22:23:18.032Z,6.73
2023-05-23T22:26:04.191Z,6.36
2023-05-23T22:28:49.952Z,5.66
2023-05-23T22:31:35.450Z,6.41
2023-05-23T22:34:20.719Z,6.31
2023-05-23T22:37:05.878Z,5.97
2023-05-23T22:39:51.057Z,5.86
2023-05-23T22:42:36.756Z,6.03
2023-05-23T22:45:22.167Z,5.57
2023-05-23T22:48:07.371Z,5.05
2023-05-23T22:50:53.126Z,6.11
2023-05-23T22:53:38.548Z,4.97
2023-05-23T22:56:23.762Z,5.64
2023-05-23T22:59:09.445Z,5.58
2023-05-23T23:01:55.016Z,4.96
2023-05-23T23:04:40.411Z,5.09
2023-05-23T23:07:25.855Z,5.33
2023-05-23T23:10:11.265Z,4.12
2023-05-23T23:12:56.841Z,5.49
2023-05-23T23:15:42.146Z,5.80
2023-05-23T23:18:27.394Z,4.86
2023-05-23T23:21:13.776Z,5.35
2023-05-23T23:23:59.329Z,5.00
2023-05-23T23:26:44.715Z,3.57
2023-05-23T23:29:30.043Z,5.26
2023-05-23T23:32:15.524Z,5.81
2023-05-23T23:35:01.210Z,4.63
2023-05-23T23:37:46.486Z,4.78
2023-05-23T23:40:32.032Z,4.36
2023-05-23T23:43:17.563Z,5.39
2023-05-23T23:46:03.101Z,5.71
2023-05-23T23:48:48.439Z,4.79
2023-05-23T23:51:34.049Z,5.32
2023-05-23T23:54:20.110Z,5.83
2023-05-23T23:57:05.784Z,4.94
2023-05-23T23:59:50.980Z,5.43
